Time;durP1;ratioP1;P1;durP2;ratioP2;P2;SDS_P1;SDS_P2;PMS_P1;PMS_P2;Temp;Humidity;BMP_temperature;BMP_pressure;BME280_temperature;BME280_humidity;BME280_pressure;Samples;Min_cycle;Max_cycle;Signal;HPM_P1;HPM_P2
2022/03/31 00:00:28;;;;;;;;;;;;;;;-1.05;100.00;98558.53;5152610;27;20501;-51
2022/03/31 00:02:55;;;;;;;3.17;2.70;;;;;;;-1.08;100.00;98551.84;5152159;27;19923;-50
2022/03/31 00:05:22;;;;;;;3.40;2.00;;;;;;;-1.10;100.00;98555.94;5151995;27;20055;-53
2022/03/31 00:07:50;;;;;;;4.30;2.15;;;;;;;-1.07;100.00;98556.13;5151970;27;20057;-49
2022/03/31 00:10:21;;;;;;;2.83;2.13;;;;;;;-1.16;100.00;98560.66;5151693;27;20053;-50
2022/03/31 00:12:47;;;;;;;3.92;2.97;;;;;;;-1.08;100.00;98551.06;5151888;27;20446;-52
2022/03/31 00:15:13;;;;;;;2.47;2.28;;;;;;;-1.06;100.00;98555.03;5151653;27;20046;-50
2022/03/31 00:17:40;;;;;;;2.85;2.15;;;;;;;-1.09;100.00;98552.16;5151915;27;20501;-52
2022/03/31 00:20:07;;;;;;;3.80;2.30;;;;;;;-1.11;100.00;98557.03;5151606;27;20053;-51
2022/03/31 00:22:34;;;;;;;2.78;2.47;;;;;;;-1.05;100.00;98553.94;5152022;27;20043;-49
2022/03/31 00:25:00;;;;;;;2.38;2.17;;;;;;;-1.10;100.00;98543.31;5150971;27;20066;-48
2022/03/31 00:27:26;;;;;;;3.75;2.60;;;;;;;-1.20;100.00;98548.88;5151586;27;20050;-52
2022/03/31 00:29:52;;;;;;;2.50;2.30;;;;;;;-1.31;100.00;98545.63;5151668;27;20051;-51
2022/03/31 00:32:19;;;;;;;2.83;2.13;;;;;;;-1.27;100.00;98540.44;5151524;27;20557;-50
2022/03/31 00:34:45;;;;;;;1.92;1.80;;;;;;;-1.37;100.00;98554.88;5151520;27;20054;-49
2022/03/31 00:37:11;;;;;;;3.08;2.50;;;;;;;-1.41;100.00;98548.53;5151468;27;20062;-52
2022/03/31 00:39:38;;;;;;;4.68;2.15;;;;;;;-1.31;100.00;98544.84;5151210;27;20406;-50
2022/03/31 00:42:06;;;;;;;4.57;2.50;;;;;;;-1.27;100.00;98545.81;5151293;27;20533;-50
2022/03/31 00:44:32;;;;;;;4.93;2.30;;;;;;;-1.24;100.00;98543.31;5151386;27;20046;-50
2022/03/31 00:46:58;;;;;;;4.40;2.72;;;;;;;-1.31;100.00;98537.56;5151309;27;20637;-54
2022/03/31 00:49:25;;;;;;;3.35;2.25;;;;;;;-1.33;100.00;98536.25;5151297;27;20137;-49
2022/03/31 00:51:54;;;;;;;4.88;2.33;;;;;;;-1.28;100.00;98530.78;5151425;27;20047;-49
2022/03/31 00:54:22;;;;;;;2.33;2.13;;;;;;;-1.29;100.00;98531.91;5151862;27;20061;-50
2022/03/31 00:56:50;;;;;;;3.35;2.55;;;;;;;-1.42;100.00;98531.59;5154881;27;20050;-50
2022/03/31 00:59:17;;;;;;;6.57;2.42;;;;;;;-1.38;100.00;98536.38;5154889;27;20063;-50
2022/03/31 01:01:45;;;;;;;3.85;2.88;;;;;;;-1.42;100.00;98536.19;5154830;27;20102;-49
2022/03/31 01:04:12;;;;;;;2.50;2.30;;;;;;;-1.30;100.00;98536.47;5154847;27;20527;-50
2022/03/31 01:06:39;;;;;;;4.35;2.63;;;;;;;-1.32;100.00;98543.25;5154564;27;20085;-49
2022/03/31 01:09:05;;;;;;;2.58;2.35;;;;;;;-1.22;100.00;98543.03;5154866;27;20043;-50
2022/03/31 01:11:32;;;;;;;2.90;2.70;;;;;;;-1.17;100.00;98555.56;5155101;27;20053;-50
2022/03/31 01:13:59;;;;;;;2.92;2.10;;;;;;;-1.07;100.00;98541.88;5154659;27;20051;-50
2022/03/31 01:16:26;;;;;;;2.90;2.60;;;;;;;-1.11;100.00;98549.75;5154814;27;20099;-49
2022/03/31 01:18:52;;;;;;;4.95;3.13;;;;;;;-1.11;100.00;98555.16;5154415;27;20057;-50
2022/03/31 01:21:18;;;;;;;4.93;2.67;;;;;;;-1.16;100.00;98555.28;5154815;27;20082;-50
2022/03/31 01:23:46;;;;;;;2.97;2.70;;;;;;;-1.15;100.00;98556.84;5154670;27;20070;-49
2022/03/31 01:26:13;;;;;;;3.33;2.72;;;;;;;-1.16;100.00;98566.03;5153907;27;20089;-48
2022/03/31 01:28:41;;;;;;;4.22;2.70;;;;;;;-1.21;100.00;98560.75;5154276;27;20054;-51
2022/03/31 01:31:08;;;;;;;4.22;2.58;;;;;;;-1.18;100.00;98565.53;5154554;27;20417;-50
2022/03/31 01:33:34;;;;;;;3.50;2.92;;;;;;;-1.31;100.00;98560.97;5154402;27;20047;-49
2022/03/31 01:36:02;;;;;;;4.10;2.92;;;;;;;-1.46;100.00;98562.09;5154333;27;20055;-48
2022/03/31 01:38:29;;;;;;;3.95;2.60;;;;;;;-1.44;100.00;98559.88;5154625;27;20145;-50
2022/03/31 01:40:56;;;;;;;4.07;2.90;;;;;;;-1.32;100.00;98564.75;5153995;27;20050;-52
2022/03/31 01:43:22;;;;;;;3.80;2.67;;;;;;;-1.38;100.00;98560.59;5154537;27;20050;-51
2022/03/31 01:45:49;;;;;;;3.75;2.58;;;;;;;-1.50;100.00;98567.28;5154136;27;20051;-51
2022/03/31 01:48:16;;;;;;;6.10;2.42;;;;;;;-1.35;100.00;98562.66;5154253;27;20053;-49
2022/03/31 01:50:43;;;;;;;6.97;2.65;;;;;;;-1.33;100.00;98569.34;5154169;27;20047;-49
2022/03/31 01:53:09;;;;;;;3.60;2.70;;;;;;;-1.32;100.00;98570.13;5153990;27;20046;-50
2022/03/31 01:55:35;;;;;;;3.35;2.85;;;;;;;-1.40;100.00;98574.31;5154104;27;20054;-48
2022/03/31 01:58:03;;;;;;;5.38;2.42;;;;;;;-1.38;100.00;98579.41;5154172;27;20149;-51
2022/03/31 02:00:29;;;;;;;3.78;2.88;;;;;;;-1.39;100.00;98567.84;5154168;27;20046;-51
2022/03/31 02:02:56;;;;;;;4.85;2.70;;;;;;;-1.48;100.00;98569.66;5153634;27;20047;-50
2022/03/31 02:05:22;;;;;;;3.08;2.58;;;;;;;-1.46;100.00;98578.22;5153725;27;20406;-51
2022/03/31 02:07:52;;;;;;;3.38;2.60;;;;;;;-1.36;100.00;98574.53;5153804;27;20053;-52
2022/03/31 02:10:18;;;;;;;2.75;2.47;;;;;;;-1.28;100.00;98585.34;5154123;27;20412;-50
2022/03/31 02:12:45;;;;;;;3.83;2.72;;;;;;;-1.33;100.00;98576.59;5153456;27;20463;-51
2022/03/31 02:15:12;;;;;;;4.43;2.85;;;;;;;-1.43;100.00;98573.03;5153982;27;20055;-52
2022/03/31 02:17:38;;;;;;;3.90;2.60;;;;;;;-1.48;100.00;98585.78;5153761;27;20050;-49
2022/03/31 02:20:05;;;;;;;3.35;2.72;;;;;;;-1.31;100.00;98588.66;5153471;27;20046;-49
2022/03/31 02:22:32;;;;;;;3.53;2.70;;;;;;;-1.24;100.00;98585.56;5153559;27;20051;-49
2022/03/31 02:24:58;;;;;;;2.95;2.65;;;;;;;-1.24;100.00;98588.25;5152804;27;20054;-49
2022/03/31 02:27:24;;;;;;;6.70;2.50;;;;;;;-1.26;100.00;98585.06;5153579;27;20054;-50
2022/03/31 02:29:50;;;;;;;4.45;2.35;;;;;;;-1.34;100.00;98600.00;5153441;27;20057;-50
2022/03/31 02:32:17;;;;;;;2.85;2.45;;;;;;;-1.43;100.00;98591.06;5153871;27;20100;-52
2022/03/31 02:34:43;;;;;;;3.80;2.67;;;;;;;-1.39;100.00;98596.63;5152992;27;20050;-49
2022/03/31 02:37:10;;;;;;;3.65;2.33;;;;;;;-1.43;100.00;98596.44;5153567;27;20042;-50
2022/03/31 02:39:36;;;;;;;5.47;2.50;;;;;;;-1.45;100.00;98594.03;5153342;27;20417;-50
2022/03/31 02:42:03;;;;;;;3.13;2.08;;;;;;;-1.45;100.00;98596.72;5153645;27;20433;-49
2022/03/31 02:44:29;;;;;;;4.30;2.70;;;;;;;-1.55;100.00;98586.19;5153201;27;20432;-48
2022/03/31 02:46:56;;;;;;;3.47;2.17;;;;;;;-1.52;100.00;98588.28;5153128;27;20114;-49
2022/03/31 02:49:23;;;;;;;4.75;3.00;;;;;;;-1.49;100.00;98578.81;5153144;27;20439;-49
2022/03/31 02:51:49;;;;;;;4.55;2.28;;;;;;;-1.51;100.00;98589.06;5153019;27;20047;-50
2022/03/31 02:56:59;;;;;;;2.63;2.28;;;;;;;-1.46;100.00;98591.66;5153429;27;20119;-51
2022/03/31 02:59:25;;;;;;;3.53;2.25;;;;;;;-1.38;100.00;98596.31;5153104;27;20047;-50
2022/03/31 03:01:51;;;;;;;2.53;2.33;;;;;;;-1.46;100.00;98595.16;5152797;27;20047;-48
2022/03/31 03:04:18;;;;;;;6.90;2.42;;;;;;;-1.54;100.00;98600.41;5153163;27;20053;-50
2022/03/31 03:06:45;;;;;;;4.95;2.40;;;;;;;-1.40;100.00;98585.06;5152693;27;20055;-49
2022/03/31 03:09:11;;;;;;;5.25;2.33;;;;;;;-1.30;100.00;98589.44;5153153;27;20050;-49
2022/03/31 03:11:37;;;;;;;4.25;2.63;;;;;;;-1.27;100.00;98588.84;5152597;27;20047;-50
2022/03/31 03:14:04;;;;;;;3.25;2.60;;;;;;;-1.45;100.00;98583.28;5152843;27;20110;-50
2022/03/31 03:16:30;;;;;;;3.22;2.47;;;;;;;-1.44;100.00;98584.06;5152754;27;20493;-50
2022/03/31 03:18:57;;;;;;;2.85;2.33;;;;;;;-1.49;100.00;98585.00;5151869;27;20090;-49
2022/03/31 03:21:23;;;;;;;2.45;1.85;;;;;;;-1.34;100.00;98586.56;5152931;27;20050;-50
2022/03/31 03:23:50;;;;;;;2.20;2.00;;;;;;;-1.43;100.00;98583.00;5152557;27;20537;-49
2022/03/31 03:26:16;;;;;;;4.55;2.03;;;;;;;-1.52;100.00;98574.84;5151935;27;20058;-49
2022/03/31 03:28:42;;;;;;;3.40;2.40;;;;;;;-1.55;100.00;98569.25;5152438;27;20505;-49
2022/03/31 03:31:09;;;;;;;3.17;2.38;;;;;;;-1.51;100.00;98570.25;5152848;27;20046;-50
2022/03/31 03:33:35;;;;;;;2.60;2.00;;;;;;;-1.60;100.00;98570.16;5152395;27;20051;-50
2022/03/31 03:36:04;;;;;;;2.60;2.17;;;;;;;-1.46;100.00;98573.63;5152600;27;20103;-49
2022/03/31 03:38:31;;;;;;;2.53;2.10;;;;;;;-1.53;100.00;98578.63;5152057;27;20050;-51
2022/03/31 03:40:58;;;;;;;3.10;2.45;;;;;;;-1.59;100.00;98569.06;5152265;27;20051;-49
2022/03/31 03:43:24;;;;;;;2.33;1.88;;;;;;;-1.58;100.00;98570.66;5152381;27;20046;-51
2022/03/31 03:45:51;;;;;;;2.78;2.25;;;;;;;-1.51;100.00;98567.56;5152117;27;20440;-51
2022/03/31 03:48:17;;;;;;;2.25;2.08;;;;;;;-1.60;100.00;98564.78;5152330;27;20474;-50
2022/03/31 03:50:44;;;;;;;2.42;1.83;;;;;;;-1.60;100.00;98569.34;5152104;27;20065;-50
2022/03/31 03:53:10;;;;;;;2.90;2.38;;;;;;;-1.74;100.00;98572.03;5152243;27;20470;-50
2022/03/31 03:55:38;;;;;;;2.50;2.10;;;;;;;-1.72;100.00;98572.53;5151944;27;20094;-51
2022/03/31 03:58:05;;;;;;;2.42;2.22;;;;;;;-1.61;100.00;98568.56;5152351;27;20049;-49
2022/03/31 04:00:32;;;;;;;3.65;3.13;;;;;;;-1.59;100.00;98574.44;5151993;27;20089;-53
2022/03/31 04:02:58;;;;;;;3.50;2.17;;;;;;;-1.58;100.00;98570.66;5152236;27;20125;-50
2022/03/31 04:05:25;;;;;;;2.67;2.00;;;;;;;-1.58;100.00;98573.34;5151829;27;20061;-51
2022/03/31 04:07:51;;;;;;;2.90;2.25;;;;;;;-1.62;100.00;98591.16;5151863;27;20057;-50
2022/03/31 04:10:18;;;;;;;2.03;1.90;;;;;;;-1.76;100.00;98580.41;5152103;27;20046;-50
2022/03/31 04:12:44;;;;;;;2.50;2.30;;;;;;;-1.69;100.00;98585.38;5151831;27;20058;-49
2022/03/31 04:15:13;;;;;;;4.30;2.17;;;;;;;-1.54;100.00;98586.97;5151709;27;20061;-50
2022/03/31 04:17:40;;;;;;;5.15;1.88;;;;;;;-1.52;100.00;98593.66;5151450;27;20068;-49
2022/03/31 04:20:07;;;;;;;2.97;2.05;;;;;;;-1.48;100.00;98591.16;5151852;27;20047;-49
2022/03/31 04:22:33;;;;;;;2.58;2.38;;;;;;;-1.50;100.00;98591.47;5151587;27;20094;-49
2022/03/31 04:25:00;;;;;;;1.80;1.63;;;;;;;-1.52;100.00;98596.34;5151484;27;20050;-48
2022/03/31 04:27:26;;;;;;;3.08;1.70;;;;;;;-1.58;100.00;98594.84;5151636;27;20111;-51
2022/03/31 04:29:52;;;;;;;2.05;1.85;;;;;;;-1.62;100.00;98593.84;5151604;27;20511;-50
2022/03/31 04:32:19;;;;;;;2.15;1.95;;;;;;;-1.57;100.00;98596.41;5151546;27;20042;-49
2022/03/31 04:34:45;;;;;;;2.92;2.25;;;;;;;-1.51;100.00;98597.91;5151668;27;20055;-49
2022/03/31 04:37:11;;;;;;;4.03;1.90;;;;;;;-1.42;100.00;98598.03;5151437;27;20390;-50
2022/03/31 04:39:38;;;;;;;2.95;2.15;;;;;;;-1.51;100.00;98597.91;5151204;27;20050;-50
2022/03/31 04:42:05;;;;;;;4.43;2.50;;;;;;;-1.48;100.00;98594.63;5151175;27;20050;-49
2022/03/31 04:44:31;;;;;;;2.50;2.17;;;;;;;-1.43;100.00;98596.44;5150852;27;20103;-50
2022/03/31 04:46:57;;;;;;;3.42;1.83;;;;;;;-1.35;100.00;98603.00;5151052;27;20047;-50
2022/03/31 04:49:24;;;;;;;2.08;1.65;;;;;;;-1.21;100.00;98601.88;5151305;27;20065;-50
2022/03/31 04:51:50;;;;;;;1.67;1.58;;;;;;;-1.24;100.00;98596.31;5150973;27;20050;-52
2022/03/31 04:54:17;;;;;;;3.92;1.73;;;;;;;-1.26;100.00;98609.28;5150942;27;20058;-49
2022/03/31 04:56:43;;;;;;;1.83;1.70;;;;;;;-1.12;100.00;98601.97;5151580;27;20055;-50
2022/03/31 04:59:10;;;;;;;2.90;1.45;;;;;;;-1.13;100.00;98599.56;5151336;27;20431;-49
2022/03/31 05:01:37;;;;;;;2.35;1.92;;;;;;;-1.19;100.00;98588.16;5150750;27;20474;-49
2022/03/31 05:04:04;;;;;;;2.33;2.05;;;;;;;-1.23;100.00;98592.53;5151108;27;20854;-50
2022/03/31 05:06:31;;;;;;;3.17;2.00;;;;;;;-1.21;100.00;98593.81;5150871;27;20051;-53
2022/03/31 05:08:57;;;;;;;2.95;2.05;;;;;;;-1.21;100.00;98591.13;5151147;27;20051;-50
2022/03/31 05:11:24;;;;;;;2.70;2.03;;;;;;;-1.16;100.00;98590.25;5137788;27;20048;-50
2022/03/31 05:13:50;;;;;;;2.35;1.80;;;;;;;-1.12;100.00;98577.78;5113451;28;20065;-51
2022/03/31 05:16:16;;;;;;;3.38;2.00;;;;;;;-0.99;100.00;98582.31;5118189;28;20518;-48
2022/03/31 05:18:43;;;;;;;2.47;1.73;;;;;;;-0.57;100.00;98582.97;5109222;28;20054;-50
2022/03/31 05:21:09;;;;;;;2.72;1.95;;;;;;;-0.42;100.00;98565.66;5109697;28;20044;-53
2022/03/31 05:23:36;;;;;;;2.95;1.98;;;;;;;-0.32;100.00;98543.06;5109086;28;20575;-56
2022/03/31 05:26:02;;;;;;;2.45;1.92;;;;;;;-0.22;100.00;98518.56;5109430;28;20506;-56
2022/03/31 05:28:28;;;;;;;2.47;1.63;;;;;;;-0.18;100.00;98486.41;5109766;28;20502;-52
2022/03/31 05:30:55;;;;;;;1.85;1.70;;;;;;;-0.06;100.00;98471.25;5109533;28;20047;-56
2022/03/31 05:33:21;;;;;;;4.07;2.10;;;;;;;-0.12;100.00;98428.59;5117553;28;20055;-51
2022/03/31 05:35:47;;;;;;;7.10;2.28;;;;;;;-0.13;100.00;98400.09;5130276;28;20099;-53
2022/03/31 05:38:14;;;;;;;1.80;1.65;;;;;;;0.01;100.00;98403.44;5130077;28;20394;-51
2022/03/31 05:40:41;;;;;;;2.75;2.03;;;;;;;-0.17;100.00;98351.41;5124638;27;20048;-52
2022/03/31 05:43:07;;;;;;;3.67;2.08;;;;;;;0.08;100.00;98346.38;5112814;28;20051;-54
2022/03/31 05:45:33;;;;;;;2.03;1.50;;;;;;;0.10;100.00;98314.50;5113085;28;20460;-53
2022/03/31 05:48:00;;;;;;;2.53;1.60;;;;;;;0.17;100.00;98310.25;5115730;28;20095;-53
2022/03/31 05:50:27;;;;;;;3.63;1.50;;;;;;;0.50;100.00;98290.88;5133266;28;20080;-55
2022/03/31 05:52:54;;;;;;;2.80;1.80;;;;;;;0.54;100.00;98234.41;5132941;28;20092;-54
2022/03/31 05:55:20;;;;;;;2.80;1.42;;;;;;;0.61;100.00;98167.25;5132966;28;20201;-53
2022/03/31 05:57:47;;;;;;;2.10;1.80;;;;;;;0.52;100.00;98121.44;5130633;28;20570;-53
2022/03/31 06:00:16;;;;;;;1.60;1.50;;;;;;;0.64;100.00;98128.84;5143581;27;20493;-55
2022/03/31 06:02:43;;;;;;;2.17;1.90;;;;;;;0.76;100.00;98115.44;5153573;27;20047;-54
2022/03/31 06:05:11;;;;;;;3.15;1.55;;;;;;;0.56;100.00;98029.88;5134741;27;20142;-55
2022/03/31 06:07:37;;;;;;;2.15;1.80;;;;;;;0.65;100.00;98057.59;5132980;28;20074;-53
2022/03/31 06:10:04;;;;;;;2.97;1.75;;;;;;;0.56;100.00;98040.66;5133171;28;20047;-55
2022/03/31 06:12:30;;;;;;;2.10;1.90;;;;;;;0.52;100.00;98040.53;5132995;28;20498;-52
2022/03/31 06:14:57;;;;;;;3.10;1.60;;;;;;;0.46;100.00;98045.31;5133305;28;20107;-54
2022/03/31 06:17:24;;;;;;;6.97;1.63;;;;;;;0.62;100.00;98069.03;5151962;27;20079;-60
2022/03/31 06:19:50;;;;;;;5.32;2.00;;;;;;;0.79;100.00;98065.44;5152759;27;20043;-53
2022/03/31 06:22:16;;;;;;;10.13;2.15;;;;;;;0.77;100.00;98016.41;5153898;27;20382;-57
2022/03/31 06:24:42;;;;;;;5.40;1.85;;;;;;;0.76;100.00;97991.34;5153042;27;20046;-55
2022/03/31 06:27:10;;;;;;;3.90;1.60;;;;;;;1.01;100.00;97991.50;5138575;27;20048;-57
2022/03/31 06:29:38;;;;;;;2.63;1.50;;;;;;;0.83;100.00;97897.16;5118711;28;20505;-56
2022/03/31 06:32:07;;;;;;;4.05;2.20;;;;;;;0.55;100.00;97844.94;5131991;28;20047;-55
2022/03/31 06:34:36;;;;;;;2.60;1.80;;;;;;;0.52;100.00;97892.22;5131789;28;20047;-56
2022/03/31 06:37:03;;;;;;;2.55;1.95;;;;;;;0.54;100.00;97900.78;5112805;28;20055;-55
2022/03/31 06:39:29;;;;;;;7.53;2.97;;;;;;;0.52;100.00;97921.88;5128324;28;20051;-54
2022/03/31 06:41:55;;;;;;;2.55;1.85;;;;;;;0.68;100.00;97960.63;5131859;28;20454;-55
2022/03/31 06:44:22;;;;;;;2.42;1.60;;;;;;;1.06;100.00;97994.75;5131683;28;20100;-56
2022/03/31 06:46:48;;;;;;;1.95;1.58;;;;;;;1.43;100.00;97903.06;5132147;28;20055;-56
2022/03/31 06:49:15;;;;;;;2.97;1.98;;;;;;;1.17;100.00;97790.00;5129938;28;20412;-51
2022/03/31 06:51:43;;;;;;;7.00;1.75;;;;;;;0.88;100.00;97720.81;5131638;27;20413;-55
2022/03/31 06:54:09;;;;;;;3.88;1.50;;;;;;;0.77;100.00;97749.34;5116145;28;20051;-57
2022/03/31 06:56:36;;;;;;;3.80;1.88;;;;;;;0.83;100.00;97735.28;5111264;28;20105;-58
2022/03/31 06:59:02;;;;;;;3.20;1.90;;;;;;;1.00;100.00;97787.50;5111306;28;20048;-58
2022/03/31 07:01:29;;;;;;;3.45;1.70;;;;;;;1.14;100.00;97790.69;5127094;28;20145;-58
2022/03/31 07:03:56;;;;;;;2.40;1.98;;;;;;;1.61;100.00;97793.72;5126086;27;20046;-56
2022/03/31 07:06:23;;;;;;;3.80;1.77;;;;;;;1.52;100.00;97711.22;5150767;27;20464;-59
2022/03/31 07:08:49;;;;;;;6.00;1.48;;;;;;;1.49;100.00;97699.19;5130996;28;20577;-57
2022/03/31 07:11:16;;;;;;;3.20;1.83;;;;;;;1.34;100.00;97662.09;5131540;28;20099;-55
2022/03/31 07:13:43;;;;;;;4.72;1.70;;;;;;;1.26;100.00;97679.97;5130103;28;20051;-57
2022/03/31 07:16:11;;;;;;;5.75;1.92;;;;;;;1.36;100.00;97709.22;5131494;28;20055;-56
2022/03/31 07:18:37;;;;;;;1.88;1.60;;;;;;;1.40;100.00;97706.66;5120237;27;20052;-58
2022/03/31 07:21:04;;;;;;;2.35;1.35;;;;;;;1.23;100.00;97680.66;5152493;27;20480;-58
2022/03/31 07:23:30;;;;;;;5.47;1.67;;;;;;;0.90;100.00;97675.38;5124762;27;20149;-57
2022/03/31 07:25:57;;;;;;;1.65;1.55;;;;;;;1.09;100.00;97756.56;5110205;28;20055;-58
2022/03/31 07:28:24;;;;;;;2.55;1.27;;;;;;;1.63;100.00;97782.56;5120954;28;20108;-59
2022/03/31 07:30:50;;;;;;;1.80;1.40;;;;;;;1.75;100.00;97687.19;5121753;28;20061;-54
2022/03/31 07:33:19;;;;;;;3.00;1.50;;;;;;;2.00;100.00;97617.59;5113524;27;20051;-63
2022/03/31 07:35:47;;;;;;;5.07;2.03;;;;;;;2.47;100.00;97570.91;5117885;28;20051;-58
2022/03/31 07:38:13;;;;;;;2.00;1.45;;;;;;;1.98;100.00;97436.88;5115876;28;20052;-57
2022/03/31 07:40:41;;;;;;;4.55;1.70;;;;;;;2.00;100.00;97447.34;5118153;28;20047;-56
2022/03/31 07:43:08;;;;;;;2.00;1.77;;;;;;;2.35;100.00;97447.38;5126434;27;20092;-60
2022/03/31 07:45:35;;;;;;;4.15;1.80;;;;;;;2.27;100.00;97421.34;5122831;27;20137;-60
2022/03/31 07:48:02;;;;;;;2.25;1.48;;;;;;;2.65;100.00;97468.50;5117164;28;20052;-56
2022/03/31 07:50:29;;;;;;;4.85;1.70;;;;;;;2.69;100.00;97426.06;5111449;28;20043;-60
2022/03/31 07:52:56;;;;;;;2.33;1.23;;;;;;;2.77;100.00;97385.28;5110942;28;20043;-61
2022/03/31 07:55:23;;;;;;;1.70;1.40;;;;;;;2.57;100.00;97367.50;5110782;28;20047;-59
2022/03/31 07:57:51;;;;;;;8.18;1.80;;;;;;;2.59;100.00;97359.78;5110900;28;20459;-59
2022/03/31 08:00:19;;;;;;;1.40;1.30;;;;;;;2.80;100.00;97371.03;5117709;28;20061;-65
2022/03/31 08:02:47;;;;;;;4.38;1.50;;;;;;;2.69;100.00;97358.44;5129553;28;20086;-59
2022/03/31 08:05:16;;;;;;;2.45;1.58;;;;;;;2.67;100.00;97358.03;5120963;27;20051;-57
2022/03/31 08:07:42;;;;;;;2.92;1.65;;;;;;;2.54;100.00;97344.63;5132223;27;20043;-55
2022/03/31 08:10:09;;;;;;;1.58;1.48;;;;;;;2.53;100.00;97359.31;5131362;28;20047;-57
2022/03/31 08:12:36;;;;;;;2.22;1.70;;;;;;;2.72;100.00;97368.53;5143500;27;20149;-58
2022/03/31 08:15:04;;;;;;;3.08;2.75;;;;;;;2.59;100.00;97357.06;5151217;27;20051;-56
2022/03/31 08:17:31;;;;;;;2.55;1.48;;;;;;;2.66;100.00;97357.22;5151427;27;20062;-55
2022/03/31 08:19:57;;;;;;;5.10;2.10;;;;;;;2.72;100.00;97350.38;5151169;27;20072;-55
2022/03/31 08:22:24;;;;;;;4.68;1.70;;;;;;;3.11;100.00;97349.56;5151320;27;20062;-54
2022/03/31 08:24:50;;;;;;;2.35;1.65;;;;;;;3.30;100.00;97347.59;5137535;27;20502;-53
2022/03/31 08:27:17;;;;;;;2.85;1.85;;;;;;;3.33;100.00;97337.16;5130229;28;20082;-56
2022/03/31 08:29:43;;;;;;;2.95;1.60;;;;;;;3.47;100.00;97338.19;5130463;28;20051;-57
2022/03/31 08:32:10;;;;;;;2.72;1.83;;;;;;;3.42;100.00;97332.28;5130611;28;20505;-56
2022/03/31 08:34:37;;;;;;;2.05;1.45;;;;;;;3.84;100.00;97326.75;5130546;28;20051;-57
2022/03/31 08:37:04;;;;;;;3.42;2.10;;;;;;;4.09;100.00;97324.38;5130604;27;20054;-58
2022/03/31 08:39:30;;;;;;;8.90;2.00;;;;;;;4.44;100.00;97321.34;5130198;28;20043;-54
2022/03/31 08:41:56;;;;;;;6.68;1.27;;;;;;;4.47;100.00;97325.28;5130772;28;20422;-56
2022/03/31 08:44:23;;;;;;;5.18;1.50;;;;;;;4.24;100.00;97315.28;5130338;28;20051;-53
2022/03/31 08:46:50;;;;;;;1.85;1.40;;;;;;;4.09;100.00;97337.16;5130348;28;20103;-61
2022/03/31 08:49:17;;;;;;;2.00;1.63;;;;;;;4.34;100.00;97332.84;5130435;28;20047;-62
2022/03/31 08:51:44;;;;;;;3.47;1.67;;;;;;;3.80;100.00;97344.91;5130567;28;20094;-63
2022/03/31 08:54:11;;;;;;;2.15;1.40;;;;;;;3.78;100.00;97333.63;5130673;28;20074;-62
2022/03/31 08:56:38;;;;;;;2.53;1.60;;;;;;;4.01;100.00;97350.63;5130294;28;20061;-62
2022/03/31 08:59:05;;;;;;;5.72;1.20;;;;;;;3.99;100.00;97344.00;5130535;28;20150;-63
2022/03/31 09:01:32;;;;;;;4.10;1.58;;;;;;;3.97;100.00;97346.31;5126610;28;20047;-63
2022/03/31 09:03:58;;;;;;;5.13;1.60;;;;;;;3.64;100.00;97342.31;5130584;28;20098;-62
2022/03/31 09:06:28;;;;;;;1.55;1.42;;;;;;;3.40;100.00;97345.41;5130214;28;20144;-62
2022/03/31 09:08:55;;;;;;;2.45;1.50;;;;;;;2.98;100.00;97343.53;5110064;28;20530;-59
2022/03/31 09:11:26;;;;;;;7.25;1.75;;;;;;;2.92;100.00;97364.69;5111022;28;20391;-63
2022/03/31 09:13:55;;;;;;;2.53;1.50;;;;;;;2.93;100.00;97384.41;5110723;27;20051;-59
2022/03/31 09:16:29;;;;;;;1.42;1.33;;;;;;;2.90;100.00;97382.41;5111484;28;20061;-56
2022/03/31 09:19:00;;;;;;;5.07;1.95;;;;;;;3.01;100.00;97383.41;5114411;28;20467;-55
2022/03/31 09:21:27;;;;;;;2.70;1.45;;;;;;;3.36;100.00;97382.47;5112975;28;20044;-56
2022/03/31 09:23:53;;;;;;;1.85;1.70;;;;;;;3.76;100.00;97371.16;5113199;28;20079;-55
2022/03/31 09:26:20;;;;;;;3.25;1.65;;;;;;;4.05;100.00;97347.97;5112371;28;20055;-56
2022/03/31 09:28:46;;;;;;;2.35;1.60;;;;;;;4.32;100.00;97332.44;5112815;28;20410;-55
2022/03/31 09:31:13;;;;;;;4.07;1.77;;;;;;;4.99;100.00;97339.81;5112923;28;20051;-58
2022/03/31 09:33:42;;;;;;;1.70;1.40;;;;;;;5.38;100.00;97358.44;5113182;28;20490;-55
2022/03/31 09:36:15;;;;;;;2.92;1.75;;;;;;;5.39;100.00;97382.50;5112904;28;20051;-57
2022/03/31 09:38:52;;;;;;;4.85;1.38;;;;;;;5.48;100.00;97400.44;5113166;28;20134;-52
2022/03/31 09:41:20;;;;;;;5.90;1.45;;;;;;;5.37;100.00;97416.66;5112822;28;20052;-57
2022/03/31 09:43:47;;;;;;;1.20;1.10;;;;;;;5.04;100.00;97461.69;5112907;28;20138;-56
2022/03/31 09:46:19;;;;;;;2.50;1.30;;;;;;;4.98;100.00;97430.56;5112442;28;20091;-57
2022/03/31 09:48:45;;;;;;;8.65;1.33;;;;;;;5.21;100.00;97411.44;5126881;27;20051;-58
2022/03/31 09:51:11;;;;;;;1.27;1.15;;;;;;;5.71;100.00;97422.81;5133284;28;20051;-58
2022/03/31 09:53:39;;;;;;;1.80;1.00;;;;;;;5.65;100.00;97456.91;5132999;28;20053;-57
2022/03/31 09:56:06;;;;;;;0.85;0.85;;;;;;;4.77;100.00;97514.50;5133357;28;20080;-57
2022/03/31 09:58:37;;;;;;;1.30;1.20;;;;;;;4.39;100.00;97467.41;5132957;28;20054;-57
2022/03/31 10:01:04;;;;;;;2.35;1.15;;;;;;;4.41;100.00;97432.56;5132653;28;20078;-57
2022/03/31 10:03:31;;;;;;;3.85;1.20;;;;;;;4.89;100.00;97389.34;5132970;28;20516;-57
2022/03/31 10:05:58;;;;;;;3.67;1.13;;;;;;;5.22;100.00;97404.84;5132299;28;20095;-61
2022/03/31 10:08:25;;;;;;;3.15;1.10;;;;;;;4.64;100.00;97457.69;5133034;27;20053;-58
2022/03/31 10:10:51;;;;;;;1.10;1.00;;;;;;;4.10;100.00;97464.28;5132916;28;20493;-53
2022/03/31 10:13:23;;;;;;;1.33;0.90;;;;;;;4.31;100.00;97414.19;5133135;28;20051;-54
2022/03/31 10:15:58;;;;;;;1.30;1.20;;;;;;;4.86;100.00;97393.56;5133051;28;20509;-58
2022/03/31 10:18:25;;;;;;;3.08;1.33;;;;;;;5.29;100.00;97401.41;5123648;28;20043;-55
2022/03/31 10:20:56;;;;;;;1.00;0.90;;;;;;;5.37;100.00;97443.84;5124039;28;20061;-55
2022/03/31 10:26:07;;;;;;;;;;;;;;;4.67;100.00;97416.25;5123720;28;20104;-65
2022/03/31 10:28:34;;;;;;;2.25;1.35;;;;;;;4.78;100.00;97388.44;5112719;28;20287;-64
2022/03/31 10:31:02;;;;;;;1.83;1.25;;;;;;;5.15;100.00;97372.94;5126552;28;20134;-54
2022/03/31 10:33:31;;;;;;;2.05;1.15;;;;;;;5.15;100.00;97443.59;5132693;28;20043;-56
2022/03/31 10:36:03;;;;;;;1.40;1.30;;;;;;;5.39;100.00;97411.63;5132640;28;20062;-58
2022/03/31 10:38:33;;;;;;;3.85;1.60;;;;;;;5.76;100.00;97427.09;5132528;28;20142;-56
2022/03/31 10:41:05;;;;;;;1.88;1.20;;;;;;;6.02;100.00;97458.84;5132244;28;20086;-59
2022/03/31 10:43:33;;;;;;;2.47;1.52;;;;;;;5.31;100.00;97507.81;5131773;28;20050;-59
2022/03/31 10:46:04;;;;;;;1.17;1.10;;;;;;;4.94;100.00;97476.72;5132191;28;20053;-58
2022/03/31 10:48:31;;;;;;;3.83;1.27;;;;;;;5.10;100.00;97475.75;5129221;28;20143;-56
2022/03/31 10:51:03;;;;;;;1.67;1.20;;;;;;;5.06;100.00;97459.38;5124413;27;20100;-59
2022/03/31 10:53:32;;;;;;;1.73;1.08;;;;;;;4.93;100.00;97472.44;5112230;28;20104;-59
2022/03/31 10:56:00;;;;;;;2.42;1.20;;;;;;;4.99;100.00;97462.00;5128652;28;20051;-59
2022/03/31 10:58:28;;;;;;;1.50;1.35;;;;;;;5.07;100.00;97463.69;5131761;28;20092;-57
2022/03/31 11:00:55;;;;;;;2.72;1.75;;;;;;;4.85;100.00;97470.75;5131190;28;20505;-59
2022/03/31 11:03:22;;;;;;;2.78;1.30;;;;;;;4.78;100.00;97450.88;5131951;28;20055;-59
2022/03/31 11:05:48;;;;;;;2.65;1.38;;;;;;;4.38;100.00;97476.69;5131454;28;20057;-59
2022/03/31 11:08:17;;;;;;;7.57;1.23;;;;;;;3.99;100.00;97482.28;5129427;27;20052;-59
2022/03/31 11:10:46;;;;;;;1.50;1.30;;;;;;;4.14;100.00;97456.19;5126645;28;20477;-59
2022/03/31 11:13:13;;;;;;;1.83;1.38;;;;;;;4.39;100.00;97451.91;5131572;28;20043;-59
2022/03/31 11:15:40;;;;;;;1.42;1.30;;;;;;;4.37;100.00;97481.34;5126669;28;20499;-57
2022/03/31 11:18:07;;;;;;;1.65;1.45;;;;;;;4.39;100.00;97483.69;5111002;28;20094;-58
2022/03/31 11:20:34;;;;;;;1.25;1.10;;;;;;;4.15;100.00;97506.56;5111120;28;20063;-58
2022/03/31 11:23:04;;;;;;;2.13;1.27;;;;;;;3.92;100.00;97449.63;5110813;28;20172;-58
2022/03/31 11:25:30;;;;;;;4.57;1.30;;;;;;;4.22;100.00;97414.44;5110382;28;20132;-58
2022/03/31 11:27:58;;;;;;;2.45;1.20;;;;;;;4.28;100.00;97406.78;5111073;28;20051;-58
2022/03/31 11:30:25;;;;;;;3.08;1.20;;;;;;;4.12;100.00;97437.56;5110906;28;20055;-58
2022/03/31 11:32:54;;;;;;;1.08;0.98;;;;;;;4.29;100.00;97409.13;5110405;28;20054;-58